Terminal Aerodrome Forecast
Issued by NWS

Home | Current Version | Previous Version | Text Only | Print | Product List | Glossary On
Versions: 1 2 3 4 5 6 7 8 9 10 11 12 13 14 15 16 17 18 19 20
000
FTUS46 KMFR 191403 AAB
TAFRBG
TAF AMD
KRBG 191403Z 1914/2012 VRB03KT 6SM -SHRA BR SCT010 BKN040 OVC080
      TEMPO 1914/1916 2SM SHRA BR SCT010 BKN020 OVC035
     FM191900 18003KT P6SM VCSH SCT020 BKN050=

USA.gov is the U.S. government's official web portal to all federal, state and local government web resources and services.